createdAt,value
2022-08-26T00:00:18.759Z,6.90
2022-08-26T00:01:18.729Z,8.60
2022-08-26T00:02:20.699Z,6.70
2022-08-26T00:03:18.690Z,6.80
2022-08-26T00:04:18.758Z,6.80
2022-08-26T00:05:18.701Z,7.50
2022-08-26T00:06:20.797Z,5.60
2022-08-26T00:07:18.643Z,9.90
2022-08-26T00:08:18.652Z,7.40
2022-08-26T00:09:18.637Z,5.00
2022-08-26T00:10:18.637Z,6.80
2022-08-26T00:11:26.802Z,6.00
2022-08-26T00:12:20.545Z,7.20
2022-08-26T00:13:19.722Z,9.60
2022-08-26T00:14:18.573Z,4.70
2022-08-26T00:15:18.560Z,5.00
2022-08-26T00:16:18.587Z,5.30
2022-08-26T00:17:18.571Z,5.60
2022-08-26T00:18:22.168Z,5.70
2022-08-26T00:19:18.518Z,8.00
2022-08-26T00:20:18.506Z,5.60
2022-08-26T00:21:18.510Z,7.10
2022-08-26T00:22:20.227Z,5.30
2022-08-26T00:23:18.487Z,7.30
2022-08-26T00:24:18.464Z,7.20
2022-08-26T00:25:18.459Z,6.10
2022-08-26T00:26:18.428Z,6.70
2022-08-26T00:27:18.453Z,9.20
2022-08-26T00:28:18.988Z,5.90
2022-08-26T00:29:18.401Z,10.00
2022-08-26T00:30:22.841Z,6.10
2022-08-26T00:31:19.461Z,8.20
2022-08-26T00:32:18.399Z,8.10
2022-08-26T00:33:18.389Z,6.00
2022-08-26T00:34:19.283Z,7.20
2022-08-26T00:35:18.336Z,9.10
2022-08-26T00:36:19.921Z,11.30
2022-08-26T00:37:18.324Z,10.20
2022-08-26T00:38:18.322Z,8.60
2022-08-26T00:39:18.322Z,12.90
2022-08-26T00:40:18.413Z,8.80
2022-08-26T00:41:18.275Z,9.60
2022-08-26T00:42:18.285Z,9.10
2022-08-26T00:43:18.253Z,10.50
2022-08-26T00:44:18.274Z,10.60
2022-08-26T00:45:18.255Z,11.60
2022-08-26T00:46:18.243Z,10.90
2022-08-26T00:47:18.235Z,11.10
2022-08-26T00:48:18.184Z,12.20
2022-08-26T00:49:18.199Z,11.00
2022-08-26T00:50:18.201Z,12.80
2022-08-26T00:51:18.172Z,14.30
2022-08-26T00:52:18.159Z,12.20
2022-08-26T00:53:18.139Z,11.10
2022-08-26T00:54:18.139Z,14.70
2022-08-26T00:55:20.385Z,12.70
2022-08-26T00:56:18.145Z,14.00
2022-08-26T00:57:18.103Z,18.20
2022-08-26T00:58:18.079Z,14.90
2022-08-26T00:59:18.093Z,15.10
2022-08-26T01:00:18.062Z,18.60
2022-08-26T01:01:18.074Z,18.90
2022-08-26T01:02:21.280Z,14.80
2022-08-26T01:03:18.030Z,15.60
2022-08-26T01:04:18.030Z,16.60
2022-08-26T01:05:18.037Z,16.60
2022-08-26T01:06:18.023Z,17.10
2022-08-26T01:07:18.026Z,18.70
2022-08-26T01:08:17.983Z,20.60
2022-08-26T01:09:17.984Z,19.90
2022-08-26T01:10:17.968Z,21.00
2022-08-26T01:11:17.963Z,19.90
2022-08-26T01:12:21.945Z,21.80
2022-08-26T01:13:17.944Z,23.40
2022-08-26T01:14:17.902Z,22.80
2022-08-26T01:15:17.938Z,22.60
2022-08-26T01:16:17.959Z,24.00
2022-08-26T01:17:17.876Z,23.60
2022-08-26T01:18:17.865Z,23.50
2022-08-26T01:19:17.977Z,27.00
2022-08-26T01:20:18.799Z,24.70
2022-08-26T01:21:17.827Z,26.10
2022-08-26T01:22:17.827Z,24.30
2022-08-26T01:23:17.813Z,26.50
2022-08-26T01:24:17.819Z,24.20
2022-08-26T01:25:17.782Z,25.80
2022-08-26T01:26:20.008Z,25.00
2022-08-26T01:27:17.774Z,27.00
2022-08-26T01:28:17.748Z,28.40
2022-08-26T01:29:17.790Z,28.90
2022-08-26T01:30:17.738Z,28.40
2022-08-26T01:31:17.757Z,29.60
2022-08-26T01:32:17.716Z,28.20
2022-08-26T01:33:17.754Z,28.50
2022-08-26T01:34:17.712Z,27.80
2022-08-26T01:35:17.681Z,27.10
2022-08-26T01:36:17.676Z,28.70
2022-08-26T01:37:17.682Z,29.80
2022-08-26T01:38:17.655Z,29.80
2022-08-26T01:39:17.624Z,30.60
2022-08-26T01:40:17.692Z,29.50
2022-08-26T01:41:19.935Z,32.50
2022-08-26T01:42:18.641Z,29.90
2022-08-26T01:43:17.604Z,32.20
2022-08-26T01:44:17.576Z,31.10
2022-08-26T01:45:17.568Z,31.10
2022-08-26T01:46:17.569Z,32.70
2022-08-26T01:47:17.545Z,31.90
2022-08-26T01:48:17.567Z,30.40
2022-08-26T01:49:17.507Z,33.10
2022-08-26T01:50:18.092Z,35.20
2022-08-26T01:51:18.504Z,36.60
2022-08-26T01:52:17.509Z,32.00
2022-08-26T01:53:17.488Z,32.40
2022-08-26T01:54:17.464Z,34.20
2022-08-26T01:55:32.248Z,34.00
2022-08-26T01:56:18.450Z,33.30
2022-08-26T01:57:17.420Z,33.60
2022-08-26T01:58:17.412Z,34.10
2022-08-26T01:59:17.410Z,34.00
2022-08-26T02:00:17.414Z,35.50
2022-08-26T02:01:17.480Z,35.80
2022-08-26T02:02:17.403Z,34.10
2022-08-26T02:03:17.460Z,35.00
2022-08-26T02:04:17.414Z,36.50
2022-08-26T02:05:17.341Z,35.40
2022-08-26T02:06:17.323Z,36.30
2022-08-26T02:07:17.353Z,36.20
2022-08-26T02:08:17.309Z,35.90
2022-08-26T02:09:18.294Z,40.00
2022-08-26T02:10:17.279Z,34.90
2022-08-26T02:11:18.313Z,38.70
2022-08-26T02:12:17.260Z,38.40
2022-08-26T02:13:17.280Z,35.40
2022-08-26T02:14:17.246Z,37.00
2022-08-26T02:15:17.319Z,36.20
2022-08-26T02:16:17.296Z,35.50
2022-08-26T02:17:17.215Z,35.80
2022-08-26T02:18:17.209Z,36.20
2022-08-26T02:19:17.461Z,36.10
2022-08-26T02:20:17.191Z,37.80
2022-08-26T02:21:17.167Z,36.70
2022-08-26T02:22:17.169Z,37.90
2022-08-26T02:23:17.140Z,36.00
2022-08-26T02:24:17.133Z,36.70
2022-08-26T02:25:17.152Z,40.60
2022-08-26T02:26:17.922Z,35.40
2022-08-26T02:27:17.101Z,37.10
2022-08-26T02:28:17.089Z,36.60
2022-08-26T02:29:17.095Z,37.00
2022-08-26T02:30:17.349Z,35.80
2022-08-26T02:31:17.124Z,36.30
2022-08-26T02:32:18.550Z,40.30
2022-08-26T02:33:17.067Z,39.50
2022-08-26T02:34:17.049Z,36.80
2022-08-26T02:35:18.304Z,39.30
2022-08-26T02:36:17.029Z,37.90
2022-08-26T02:37:17.669Z,35.50
2022-08-26T02:38:16.975Z,36.70
2022-08-26T02:39:22.023Z,34.70
2022-08-26T02:40:18.037Z,33.90
2022-08-26T02:41:16.948Z,38.10
2022-08-26T02:42:16.961Z,37.70
2022-08-26T02:43:16.976Z,39.10
2022-08-26T02:44:16.934Z,36.60
2022-08-26T02:45:16.923Z,38.80
2022-08-26T02:46:21.486Z,36.20
2022-08-26T02:47:17.943Z,35.10
2022-08-26T02:48:16.889Z,35.20
2022-08-26T02:49:16.981Z,37.70
2022-08-26T02:50:16.844Z,38.40
2022-08-26T02:51:16.844Z,40.40
2022-08-26T02:52:16.827Z,39.70
2022-08-26T02:53:17.030Z,39.50
2022-08-26T02:54:17.809Z,38.30
2022-08-26T02:55:16.790Z,42.30
2022-08-26T02:56:16.786Z,39.60
2022-08-26T02:57:16.774Z,38.90
2022-08-26T02:58:16.780Z,39.20
2022-08-26T02:59:16.796Z,39.70
2022-08-26T03:00:16.738Z,37.60
2022-08-26T03:01:16.790Z,38.30
2022-08-26T03:02:16.808Z,38.80
2022-08-26T03:03:16.726Z,38.80
2022-08-26T03:04:16.690Z,38.50
2022-08-26T03:05:16.708Z,40.10
2022-08-26T03:06:16.687Z,39.30
2022-08-26T03:07:16.686Z,41.20
2022-08-26T03:08:16.655Z,38.30
2022-08-26T03:09:18.837Z,39.40
2022-08-26T03:10:16.673Z,37.90
2022-08-26T03:11:16.619Z,41.10
2022-08-26T03:12:16.646Z,39.30
2022-08-26T03:13:16.596Z,38.70
2022-08-26T03:14:16.586Z,40.40
2022-08-26T03:15:17.956Z,39.80
2022-08-26T03:16:16.628Z,45.60
2022-08-26T03:17:16.561Z,40.10
2022-08-26T03:18:16.578Z,42.60
2022-08-26T03:19:17.711Z,42.70
2022-08-26T03:20:17.294Z,40.30
2022-08-26T03:21:16.530Z,43.80
2022-08-26T03:22:16.512Z,40.40
2022-08-26T03:23:16.490Z,39.70
2022-08-26T03:24:16.500Z,38.50
2022-08-26T03:25:16.471Z,37.80
2022-08-26T03:26:16.450Z,35.10
2022-08-26T03:27:16.546Z,39.60
2022-08-26T03:28:16.439Z,36.80
2022-08-26T03:29:16.653Z,38.70
2022-08-26T03:30:16.439Z,38.20
2022-08-26T03:31:16.470Z,40.40
2022-08-26T03:32:16.395Z,36.90
2022-08-26T03:33:16.384Z,35.50
2022-08-26T03:34:16.365Z,35.10
2022-08-26T03:35:16.390Z,36.50
2022-08-26T03:36:16.385Z,34.20
2022-08-26T03:37:16.335Z,33.30
2022-08-26T03:38:16.346Z,33.80
2022-08-26T03:39:16.325Z,35.60
2022-08-26T03:40:16.421Z,35.30
2022-08-26T03:41:16.296Z,35.90
2022-08-26T03:42:16.281Z,33.80
2022-08-26T03:43:16.329Z,33.20
2022-08-26T03:44:16.264Z,32.70
2022-08-26T03:45:16.256Z,35.60
2022-08-26T03:46:16.298Z,31.90
2022-08-26T03:47:16.246Z,34.50
2022-08-26T03:48:16.229Z,35.80
2022-08-26T03:49:16.241Z,31.60
2022-08-26T03:50:16.198Z,32.40
2022-08-26T03:51:18.007Z,33.60
2022-08-26T03:52:16.161Z,32.10
2022-08-26T03:53:16.204Z,33.20
2022-08-26T03:54:16.179Z,33.80
2022-08-26T03:55:16.163Z,32.40
2022-08-26T03:56:16.143Z,30.30
2022-08-26T03:57:16.765Z,36.70
2022-08-26T03:58:16.112Z,32.80
2022-08-26T03:59:16.104Z,31.10
2022-08-26T04:00:18.371Z,33.80
2022-08-26T04:01:16.340Z,34.70
2022-08-26T04:02:16.073Z,34.00
2022-08-26T04:03:18.907Z,32.80
2022-08-26T04:04:16.033Z,30.90
2022-08-26T04:05:16.029Z,34.60
2022-08-26T04:06:16.016Z,31.10
2022-08-26T04:07:16.025Z,33.80
2022-08-26T04:08:15.996Z,30.10
2022-08-26T04:09:16.000Z,28.50
2022-08-26T04:10:15.965Z,31.40
2022-08-26T04:11:15.962Z,33.20
2022-08-26T04:12:16.008Z,32.30
2022-08-26T04:13:15.939Z,31.10
2022-08-26T04:14:17.630Z,33.60
2022-08-26T04:15:15.928Z,31.00
2022-08-26T04:16:15.959Z,29.30
2022-08-26T04:17:15.909Z,31.00
2022-08-26T04:18:15.931Z,30.80
2022-08-26T04:19:15.877Z,29.10
2022-08-26T04:20:16.263Z,32.70
2022-08-26T04:21:15.877Z,30.20
2022-08-26T04:22:15.840Z,26.20
2022-08-26T04:23:16.831Z,29.30
2022-08-26T04:24:15.854Z,26.40
2022-08-26T04:25:15.812Z,28.00
2022-08-26T04:26:15.795Z,28.50
2022-08-26T04:27:15.995Z,28.20
2022-08-26T04:28:15.774Z,29.00
2022-08-26T04:29:15.794Z,29.80
2022-08-26T04:30:15.787Z,26.90
2022-08-26T04:31:15.819Z,26.40
2022-08-26T04:32:15.754Z,28.80
2022-08-26T04:33:15.754Z,26.00
2022-08-26T04:34:15.711Z,26.60
2022-08-26T04:35:15.715Z,29.70
2022-08-26T04:36:15.690Z,26.60
2022-08-26T04:37:15.716Z,23.40
2022-08-26T04:38:15.672Z,27.00
2022-08-26T04:39:15.659Z,25.30
2022-08-26T04:40:15.734Z,25.60
2022-08-26T04:41:17.100Z,26.60
2022-08-26T04:42:18.862Z,28.60
2022-08-26T04:43:16.623Z,27.10
2022-08-26T04:44:15.601Z,26.00
2022-08-26T04:45:15.610Z,26.50
2022-08-26T04:46:15.663Z,25.50
2022-08-26T04:47:15.579Z,28.90
2022-08-26T04:48:16.933Z,27.80
2022-08-26T04:49:15.553Z,25.60
2022-08-26T04:50:15.586Z,26.80
2022-08-26T04:51:15.555Z,28.00
2022-08-26T04:52:15.544Z,28.30
2022-08-26T04:53:15.519Z,28.50
2022-08-26T04:54:16.398Z,23.60
2022-08-26T04:55:15.539Z,25.60
2022-08-26T04:56:15.508Z,25.80
2022-08-26T04:57:15.518Z,24.90
2022-08-26T04:58:15.527Z,23.50
2022-08-26T04:59:17.116Z,30.10
2022-08-26T05:00:15.477Z,25.40
2022-08-26T05:01:15.486Z,28.00
2022-08-26T05:02:15.414Z,22.70
2022-08-26T05:03:15.395Z,25.80
2022-08-26T05:04:16.290Z,23.30
2022-08-26T05:05:15.415Z,25.70
2022-08-26T05:06:15.395Z,26.00
2022-08-26T05:07:15.363Z,25.60
2022-08-26T05:08:15.361Z,26.10
2022-08-26T05:09:15.506Z,26.60
2022-08-26T05:10:15.339Z,22.20
2022-08-26T05:11:15.332Z,24.50
2022-08-26T05:12:15.331Z,28.20
2022-08-26T05:13:15.824Z,25.10
2022-08-26T05:14:15.293Z,27.00
2022-08-26T05:15:15.264Z,24.90
2022-08-26T05:16:15.280Z,26.20
2022-08-26T05:17:15.305Z,24.50
2022-08-26T05:18:15.242Z,25.00
2022-08-26T05:19:15.265Z,24.70
2022-08-26T05:20:15.243Z,23.70
2022-08-26T05:21:15.266Z,28.10
2022-08-26T05:22:15.186Z,27.60
2022-08-26T05:23:15.245Z,27.70
2022-08-26T05:24:15.190Z,27.60
2022-08-26T05:25:36.157Z,25.60
2022-08-26T05:26:15.205Z,26.80
2022-08-26T05:27:15.175Z,30.00
2022-08-26T05:28:15.163Z,29.80
2022-08-26T05:29:15.166Z,25.20
2022-08-26T05:30:15.107Z,28.20
2022-08-26T05:31:15.214Z,26.70
2022-08-26T05:32:15.097Z,27.10
2022-08-26T05:33:15.139Z,25.20
2022-08-26T05:34:15.099Z,25.10
2022-08-26T05:35:15.072Z,23.80
2022-08-26T05:36:15.044Z,25.90
2022-08-26T05:37:15.081Z,28.70
2022-08-26T05:38:15.060Z,23.90
2022-08-26T05:39:15.021Z,25.60
2022-08-26T05:40:15.096Z,23.20
2022-08-26T05:41:14.999Z,25.70
2022-08-26T05:42:14.990Z,26.50
2022-08-26T05:43:15.015Z,20.80
2022-08-26T05:44:14.960Z,22.60
2022-08-26T05:45:14.939Z,27.10
2022-08-26T05:46:14.972Z,22.70
2022-08-26T05:47:14.929Z,31.60
2022-08-26T05:48:14.930Z,31.20
2022-08-26T05:49:14.914Z,27.30
2022-08-26T05:50:14.911Z,26.50
2022-08-26T05:51:14.875Z,29.00
2022-08-26T05:52:14.882Z,29.20
2022-08-26T05:53:14.886Z,28.90
2022-08-26T05:54:14.906Z,26.90
2022-08-26T05:55:15.847Z,28.00
2022-08-26T05:56:14.833Z,29.70
2022-08-26T05:57:14.805Z,25.90
2022-08-26T05:58:14.825Z,26.90
2022-08-26T05:59:14.798Z,26.90
2022-08-26T06:00:14.810Z,24.20
2022-08-26T06:01:14.817Z,24.20
2022-08-26T06:02:14.797Z,20.10
2022-08-26T06:03:14.811Z,20.50
2022-08-26T06:04:14.747Z,20.80
2022-08-26T06:05:14.748Z,22.00
2022-08-26T06:06:14.707Z,24.40
2022-08-26T06:07:14.710Z,22.80
2022-08-26T06:08:14.692Z,23.70
2022-08-26T06:09:14.701Z,22.10
2022-08-26T06:10:31.575Z,19.20
2022-08-26T06:11:18.616Z,17.80
2022-08-26T06:12:14.648Z,21.50
2022-08-26T06:13:14.655Z,18.20
2022-08-26T06:14:14.639Z,18.90
2022-08-26T06:15:14.613Z,18.30
2022-08-26T06:16:14.812Z,19.60
2022-08-26T06:17:14.606Z,18.30
2022-08-26T06:18:14.590Z,19.50
2022-08-26T06:19:14.573Z,20.10
2022-08-26T06:20:14.564Z,19.80
2022-08-26T06:21:14.586Z,16.50
2022-08-26T06:22:14.545Z,18.30
2022-08-26T06:23:14.525Z,21.00
2022-08-26T06:24:14.542Z,21.20
2022-08-26T06:25:14.531Z,18.40
2022-08-26T06:26:14.507Z,19.90
2022-08-26T06:27:15.330Z,19.20
2022-08-26T06:28:14.483Z,21.90
2022-08-26T06:29:16.405Z,20.90
2022-08-26T06:30:15.455Z,21.40
2022-08-26T06:31:14.492Z,21.20
2022-08-26T06:32:14.444Z,23.20
2022-08-26T06:33:14.436Z,23.30
2022-08-26T06:34:14.413Z,22.90
2022-08-26T06:35:14.417Z,25.00
2022-08-26T06:36:14.388Z,20.60
2022-08-26T06:37:14.394Z,20.30
2022-08-26T06:38:14.378Z,19.20
2022-08-26T06:39:14.365Z,20.90
2022-08-26T06:40:14.414Z,20.80
2022-08-26T06:41:14.331Z,16.60
2022-08-26T06:42:14.370Z,19.90
2022-08-26T06:43:14.310Z,19.80
2022-08-26T06:44:14.299Z,19.90
2022-08-26T06:45:14.286Z,20.90
2022-08-26T06:46:14.318Z,20.40
2022-08-26T06:47:14.283Z,19.30
2022-08-26T06:48:14.250Z,17.50
2022-08-26T06:49:14.241Z,19.80
2022-08-26T06:50:14.246Z,21.70
2022-08-26T06:51:14.214Z,21.30
2022-08-26T06:52:14.240Z,21.10
2022-08-26T06:53:15.192Z,21.20
2022-08-26T06:54:14.182Z,19.50
2022-08-26T06:55:14.195Z,20.10
2022-08-26T06:56:14.192Z,18.80
2022-08-26T06:57:14.231Z,17.60
2022-08-26T06:58:14.149Z,20.40
2022-08-26T06:59:14.128Z,20.70
2022-08-26T07:00:14.150Z,18.40
2022-08-26T07:01:14.135Z,21.20
2022-08-26T07:02:14.144Z,20.20
2022-08-26T07:03:14.157Z,18.70
2022-08-26T07:04:14.101Z,19.20
2022-08-26T07:05:14.064Z,16.70
2022-08-26T07:06:14.076Z,19.80
2022-08-26T07:07:14.038Z,18.70
2022-08-26T07:08:14.036Z,18.50
2022-08-26T07:09:14.025Z,15.70
2022-08-26T07:10:14.043Z,16.40
2022-08-26T07:11:14.004Z,19.00
2022-08-26T07:12:14.003Z,19.30
2022-08-26T07:13:13.993Z,17.90
2022-08-26T07:14:13.980Z,20.70
2022-08-26T07:15:13.957Z,18.40
2022-08-26T07:16:13.990Z,23.60
2022-08-26T07:17:14.054Z,20.60
2022-08-26T07:18:13.947Z,19.90
2022-08-26T07:19:13.907Z,24.20
2022-08-26T07:20:13.936Z,22.00
2022-08-26T07:21:13.886Z,22.90
2022-08-26T07:22:13.908Z,23.70
2022-08-26T07:23:13.866Z,24.30
2022-08-26T07:24:13.857Z,23.00
2022-08-26T07:25:13.845Z,22.30
2022-08-26T07:26:13.834Z,20.80
2022-08-26T07:27:13.839Z,21.80
2022-08-26T07:28:13.805Z,22.20
2022-08-26T07:29:13.788Z,20.40
2022-08-26T07:30:14.802Z,22.60
2022-08-26T07:31:13.815Z,21.00
2022-08-26T07:32:13.799Z,20.70
2022-08-26T07:33:13.746Z,22.50
2022-08-26T07:34:13.755Z,22.70
2022-08-26T07:35:13.725Z,22.40
2022-08-26T07:36:13.728Z,21.20
2022-08-26T07:37:13.698Z,21.80
2022-08-26T07:38:13.753Z,21.10
2022-08-26T07:39:13.685Z,22.50
2022-08-26T07:40:13.724Z,20.70
2022-08-26T07:41:13.686Z,20.60
2022-08-26T07:42:13.690Z,22.40
2022-08-26T07:43:13.671Z,21.90
2022-08-26T07:44:13.650Z,18.80
2022-08-26T07:45:13.623Z,21.80
2022-08-26T07:46:16.470Z,19.40
2022-08-26T07:47:25.287Z,22.00
2022-08-26T07:48:14.597Z,19.40
2022-08-26T07:49:13.627Z,20.20
2022-08-26T07:50:13.584Z,18.60
2022-08-26T07:51:13.579Z,18.10
2022-08-26T07:52:13.561Z,17.70
2022-08-26T07:53:13.565Z,18.20
2022-08-26T07:54:13.535Z,16.20
2022-08-26T07:55:13.575Z,16.10
2022-08-26T07:56:13.514Z,16.10
2022-08-26T07:57:13.511Z,12.50
2022-08-26T07:58:13.483Z,13.70
2022-08-26T07:59:14.001Z,14.70
2022-08-26T08:00:13.458Z,13.80
2022-08-26T08:01:13.538Z,11.10
2022-08-26T08:02:13.473Z,11.00
2022-08-26T08:03:13.438Z,16.00
2022-08-26T08:04:13.419Z,11.70
2022-08-26T08:05:13.469Z,11.90
2022-08-26T08:06:13.391Z,11.10
2022-08-26T08:07:13.419Z,12.50
2022-08-26T08:08:26.222Z,12.00
2022-08-26T08:09:14.375Z,9.40
2022-08-26T08:10:13.351Z,11.20
2022-08-26T08:11:13.332Z,13.90
2022-08-26T08:12:13.979Z,10.80
2022-08-26T08:13:13.303Z,10.30
2022-08-26T08:14:13.337Z,10.20
2022-08-26T08:15:13.316Z,10.50
2022-08-26T08:16:13.288Z,11.20
2022-08-26T08:17:13.279Z,12.20
2022-08-26T08:18:15.386Z,13.90
2022-08-26T08:19:13.253Z,10.50
2022-08-26T08:20:13.257Z,9.20
2022-08-26T08:21:21.690Z,9.50
2022-08-26T08:22:17.546Z,10.10
2022-08-26T08:23:14.195Z,10.70
2022-08-26T08:24:13.236Z,10.60
2022-08-26T08:25:13.176Z,10.00
2022-08-26T08:26:13.168Z,14.60
2022-08-26T08:27:13.187Z,12.10
2022-08-26T08:28:13.173Z,10.30
2022-08-26T08:29:13.130Z,11.20
2022-08-26T08:30:13.651Z,10.40
2022-08-26T08:31:13.128Z,12.40
2022-08-26T08:32:13.107Z,9.20
2022-08-26T08:33:13.090Z,10.60
2022-08-26T08:34:13.096Z,8.40
2022-08-26T08:35:13.069Z,8.00
2022-08-26T08:36:13.079Z,10.40
2022-08-26T08:37:14.056Z,9.60
2022-08-26T08:38:13.044Z,8.10
2022-08-26T08:39:13.036Z,7.60
2022-08-26T08:40:13.085Z,9.20
2022-08-26T08:41:13.007Z,6.80
2022-08-26T08:42:13.036Z,9.00
2022-08-26T08:43:12.983Z,9.50
2022-08-26T08:44:13.025Z,8.80
2022-08-26T08:45:12.963Z,9.90
2022-08-26T08:46:13.031Z,10.60
2022-08-26T08:47:12.953Z,8.90
2022-08-26T08:48:12.944Z,8.70
2022-08-26T08:49:12.913Z,10.10
2022-08-26T08:50:12.904Z,8.00
2022-08-26T08:51:12.895Z,6.00
2022-08-26T08:52:12.917Z,7.70
2022-08-26T08:53:12.865Z,8.00
2022-08-26T08:54:12.887Z,7.20
2022-08-26T08:55:16.084Z,7.20
2022-08-26T08:56:13.835Z,8.10
2022-08-26T08:57:12.833Z,8.40
2022-08-26T08:58:12.840Z,9.10
2022-08-26T08:59:12.798Z,8.70
2022-08-26T09:00:12.805Z,8.00
2022-08-26T09:01:12.828Z,9.10
2022-08-26T09:02:12.837Z,8.80
2022-08-26T09:03:12.783Z,6.70
2022-08-26T09:04:12.759Z,6.70
2022-08-26T09:05:15.074Z,8.40
2022-08-26T09:06:12.740Z,7.50
2022-08-26T09:07:12.742Z,8.60
2022-08-26T09:08:12.795Z,8.90
2022-08-26T09:09:12.680Z,8.10
2022-08-26T09:10:12.673Z,8.20
2022-08-26T09:11:12.690Z,8.00
2022-08-26T09:12:12.660Z,11.30
2022-08-26T09:13:16.369Z,8.10
2022-08-26T09:14:12.641Z,6.80
2022-08-26T09:15:12.622Z,8.50
2022-08-26T09:16:12.634Z,9.60
2022-08-26T09:17:12.657Z,8.50
2022-08-26T09:18:12.626Z,7.80
2022-08-26T09:19:12.643Z,7.60
2022-08-26T09:20:12.567Z,6.50
2022-08-26T09:21:12.562Z,8.70
2022-08-26T09:22:12.554Z,8.60
2022-08-26T09:23:12.539Z,11.20
2022-08-26T09:24:13.975Z,6.90
2022-08-26T09:25:12.523Z,7.10
2022-08-26T09:26:12.502Z,9.00
2022-08-26T09:27:12.494Z,5.80
2022-08-26T09:28:12.484Z,8.40
2022-08-26T09:29:12.494Z,10.30
2022-08-26T09:30:12.486Z,8.30
2022-08-26T09:31:12.513Z,7.30
2022-08-26T09:32:12.432Z,6.90
2022-08-26T09:33:12.770Z,8.20
2022-08-26T09:34:12.430Z,8.40
2022-08-26T09:35:13.422Z,7.20
2022-08-26T09:36:12.419Z,8.40
2022-08-26T09:37:12.382Z,9.00
2022-08-26T09:38:12.381Z,9.40
2022-08-26T09:39:12.384Z,8.30
2022-08-26T09:40:12.484Z,7.20
2022-08-26T09:41:12.364Z,6.00
2022-08-26T09:42:12.344Z,8.60
2022-08-26T09:43:12.339Z,7.70
2022-08-26T09:44:14.750Z,5.20
2022-08-26T09:45:12.294Z,8.40
2022-08-26T09:46:12.322Z,10.00
2022-08-26T09:47:12.277Z,6.60
2022-08-26T09:48:12.282Z,7.10
2022-08-26T09:49:13.266Z,4.90
2022-08-26T09:50:12.502Z,7.40
2022-08-26T09:51:12.250Z,7.40
2022-08-26T09:52:12.226Z,7.00
2022-08-26T09:53:12.950Z,12.50
2022-08-26T09:54:12.193Z,12.80
2022-08-26T09:55:13.188Z,10.10
2022-08-26T09:56:12.197Z,9.60
2022-08-26T09:57:12.157Z,7.90
2022-08-26T09:58:12.293Z,13.30
2022-08-26T09:59:12.146Z,13.10
2022-08-26T10:00:12.124Z,6.30
2022-08-26T10:01:12.144Z,7.60
2022-08-26T10:02:12.327Z,9.50
2022-08-26T10:03:12.359Z,8.30
2022-08-26T10:04:13.106Z,7.70
2022-08-26T10:05:12.082Z,8.70
2022-08-26T10:06:12.091Z,7.40
2022-08-26T10:07:12.052Z,4.90
2022-08-26T10:08:12.038Z,7.50
2022-08-26T10:09:12.023Z,6.10
2022-08-26T10:10:12.017Z,6.20
2022-08-26T10:11:12.011Z,7.40
2022-08-26T10:12:12.034Z,7.30
2022-08-26T10:13:11.985Z,7.00
2022-08-26T10:14:11.964Z,7.70
2022-08-26T10:15:12.009Z,7.60
2022-08-26T10:16:11.991Z,7.00
2022-08-26T10:17:11.967Z,7.10
2022-08-26T10:18:12.015Z,6.10
2022-08-26T10:19:11.939Z,6.30
2022-08-26T10:20:24.952Z,8.40
2022-08-26T10:21:12.920Z,9.60
2022-08-26T10:22:11.890Z,8.60
2022-08-26T10:23:11.868Z,6.40
2022-08-26T10:24:11.898Z,9.30
2022-08-26T10:25:11.889Z,6.50
2022-08-26T10:26:11.884Z,6.30
2022-08-26T10:27:11.829Z,7.30
2022-08-26T10:28:11.818Z,7.90
2022-08-26T10:29:11.840Z,7.10
2022-08-26T10:30:11.803Z,7.10
2022-08-26T10:31:11.780Z,5.90
2022-08-26T10:32:13.908Z,8.80
2022-08-26T10:33:11.792Z,8.60
2022-08-26T10:34:12.541Z,7.20
2022-08-26T10:35:11.751Z,7.40
2022-08-26T10:36:12.326Z,9.80
2022-08-26T10:37:14.443Z,6.10
2022-08-26T10:38:11.723Z,6.20
2022-08-26T10:39:11.768Z,7.60
2022-08-26T10:40:11.776Z,7.10
2022-08-26T10:41:11.695Z,9.20
2022-08-26T10:42:11.687Z,8.50
2022-08-26T10:43:11.760Z,7.90
2022-08-26T10:44:11.640Z,6.50
2022-08-26T10:45:14.867Z,6.80
2022-08-26T10:46:11.682Z,8.20
2022-08-26T10:47:11.646Z,7.50
2022-08-26T10:48:11.599Z,10.40
2022-08-26T10:49:11.643Z,10.30
2022-08-26T10:50:11.582Z,9.30
2022-08-26T10:51:11.589Z,7.30
2022-08-26T10:52:12.256Z,7.10
2022-08-26T10:53:11.610Z,10.30
2022-08-26T10:54:11.786Z,10.70
2022-08-26T10:55:11.543Z,8.80
2022-08-26T10:56:18.581Z,9.60
2022-08-26T10:57:12.510Z,7.40
2022-08-26T10:58:11.638Z,9.90
2022-08-26T10:59:12.411Z,9.80
2022-08-26T11:00:11.488Z,9.40
2022-08-26T11:01:11.547Z,7.40
2022-08-26T11:02:11.479Z,11.90
2022-08-26T11:03:21.954Z,12.30
2022-08-26T11:04:12.485Z,8.90
2022-08-26T11:05:11.439Z,13.30
2022-08-26T11:06:11.424Z,9.10
2022-08-26T11:07:11.415Z,7.80
2022-08-26T11:08:11.391Z,9.60
2022-08-26T11:09:11.464Z,6.60
2022-08-26T11:10:11.396Z,8.20
2022-08-26T11:11:11.357Z,7.40
2022-08-26T11:12:11.387Z,7.10
2022-08-26T11:13:11.327Z,10.00
2022-08-26T11:14:11.316Z,7.50
2022-08-26T11:15:11.356Z,7.10
2022-08-26T11:16:11.352Z,7.60
2022-08-26T11:17:11.318Z,7.80
2022-08-26T11:18:11.480Z,6.10
2022-08-26T11:19:11.294Z,8.50
2022-08-26T11:20:13.634Z,5.50
2022-08-26T11:21:11.258Z,7.50
2022-08-26T11:22:11.225Z,8.00
2022-08-26T11:23:11.220Z,7.40
2022-08-26T11:24:11.215Z,7.80
2022-08-26T11:25:11.509Z,5.50
2022-08-26T11:26:11.209Z,4.60
2022-08-26T11:27:12.196Z,6.80
2022-08-26T11:28:11.318Z,7.20
2022-08-26T11:29:12.201Z,13.60
2022-08-26T11:30:11.159Z,6.30
2022-08-26T11:31:11.194Z,10.90
2022-08-26T11:32:11.160Z,6.40
2022-08-26T11:33:11.457Z,7.00
2022-08-26T11:34:11.101Z,7.90
2022-08-26T11:35:11.094Z,7.70
2022-08-26T11:36:12.178Z,7.30
2022-08-26T11:37:11.106Z,8.10
2022-08-26T11:38:11.085Z,6.10
2022-08-26T11:39:11.055Z,5.90
2022-08-26T11:40:11.075Z,6.30
2022-08-26T11:41:11.045Z,4.70
2022-08-26T11:42:11.007Z,7.10
2022-08-26T11:43:11.021Z,7.10
2022-08-26T11:44:11.027Z,5.30
2022-08-26T11:45:10.980Z,5.30
2022-08-26T11:46:11.073Z,6.70
2022-08-26T11:47:11.419Z,4.90
2022-08-26T11:48:10.955Z,6.40
2022-08-26T11:49:10.937Z,6.10
2022-08-26T11:50:10.930Z,5.10
2022-08-26T11:51:10.942Z,7.60
2022-08-26T11:52:10.908Z,8.10
2022-08-26T11:53:10.932Z,5.00
2022-08-26T11:54:10.921Z,5.20
2022-08-26T11:55:10.899Z,7.00
2022-08-26T11:56:10.921Z,5.70
2022-08-26T11:57:11.951Z,6.40
2022-08-26T11:58:10.915Z,6.00
2022-08-26T11:59:10.825Z,7.20
2022-08-26T12:00:13.544Z,4.80
2022-08-26T12:01:11.542Z,6.90
2022-08-26T12:02:10.835Z,5.20
2022-08-26T12:03:11.047Z,6.70
2022-08-26T12:04:10.937Z,5.40
2022-08-26T12:05:10.778Z,5.00
2022-08-26T12:06:10.764Z,5.60
2022-08-26T12:07:10.773Z,4.50
2022-08-26T12:08:11.038Z,7.20
2022-08-26T12:09:10.759Z,4.40
2022-08-26T12:10:10.774Z,7.10
2022-08-26T12:11:10.698Z,5.70
2022-08-26T12:12:10.685Z,6.70
2022-08-26T12:13:10.698Z,4.70
2022-08-26T12:14:10.688Z,5.60
2022-08-26T12:15:10.659Z,4.40
2022-08-26T12:16:10.657Z,5.60
2022-08-26T12:17:10.654Z,5.10
2022-08-26T12:18:10.636Z,3.40
2022-08-26T12:19:10.639Z,4.70
2022-08-26T12:20:10.745Z,5.40
2022-08-26T12:21:10.592Z,3.80
2022-08-26T12:22:10.577Z,3.30
2022-08-26T12:23:10.576Z,4.90
2022-08-26T12:24:10.600Z,4.30
2022-08-26T12:25:10.549Z,3.80
2022-08-26T12:26:10.566Z,3.90
2022-08-26T12:27:10.537Z,5.50
2022-08-26T12:28:10.546Z,3.90
2022-08-26T12:29:20.017Z,5.80
2022-08-26T12:30:12.435Z,4.00
2022-08-26T12:31:10.514Z,6.00
2022-08-26T12:32:10.485Z,4.40
2022-08-26T12:33:22.999Z,5.00
2022-08-26T12:34:17.433Z,7.00
2022-08-26T12:35:11.462Z,5.20
2022-08-26T12:36:10.468Z,8.20
2022-08-26T12:37:10.422Z,4.30
2022-08-26T12:38:10.580Z,6.40
2022-08-26T12:39:10.414Z,4.30
2022-08-26T12:40:10.527Z,4.80
2022-08-26T12:41:10.407Z,3.20
2022-08-26T12:42:10.422Z,4.90
2022-08-26T12:43:10.386Z,7.00
2022-08-26T12:44:10.395Z,4.00
2022-08-26T12:45:10.331Z,7.10
2022-08-26T12:46:10.332Z,4.40
2022-08-26T12:47:10.314Z,5.20
2022-08-26T12:48:10.439Z,4.10
2022-08-26T12:49:10.312Z,4.80
2022-08-26T12:50:10.335Z,5.50
2022-08-26T12:51:10.263Z,5.60
2022-08-26T12:52:10.247Z,5.30
2022-08-26T12:53:10.279Z,3.60
2022-08-26T12:54:10.226Z,6.00
2022-08-26T12:55:10.261Z,5.00
2022-08-26T12:56:10.247Z,5.10
2022-08-26T12:57:10.201Z,5.40
2022-08-26T12:58:10.282Z,7.60
2022-08-26T12:59:12.201Z,6.40
2022-08-26T13:00:10.339Z,4.30
2022-08-26T13:01:10.270Z,6.00
2022-08-26T13:02:10.262Z,4.80